Aérodrome :
LOGIN :

S'inscrire | Disclaimer

   EN    FR    IT 

 










Légende :    VFR   VFR Marginal   IFR   IFR Intensif   IFR Très Intensif
Visi : 
Plafond : 
>= 8 km
>= 3000ft
5 à 8 km
1000 à 3000 ft
1500m à 5 km
500 à 1000 ft
800 à 1500m
200 à 500 ft
< 800m
< 200 ft
Symboles :   Orages  Brouillard  Fortes neiges  Fortes précipitations  Vent > 20 kt
SIGMETs :   Divers  Orages  Givrage  Turbulence  Onde Orograph.  Cendres Volcan.






- Altitude de l'aérodrome : 705 ft
- Code IATA : LYC


ESNL - Lycksele

DERNIER METAR :
  • 040950Z AUTO 29010KT 9999 FEW058/// 01/M12 Q1003

METARs EXPIRÉS :
  • 040920Z AUTO 29008KT 9999 FEW033/// 00/M10 Q1003
  • 040850Z AUTO 30006KT 9999 NCD M00/M09 Q1002
  • 040820Z AUTO 27006KT 240V300 9999 NCD M01/M09 Q1002
  • 040750Z AUTO 29009KT 9999 NCD M02/M09 Q1001
  • 040720Z AUTO 27007KT 9999 FEW081/// M02/M09 Q1001

TAF N/A



MET'MAP, la Météo Aéronautique d'un coup d'oeil ! - Copyright ORBIFLY Décembre 2007 - Disclaimer

ORBIFLY MET'MAP TEAM :

Programmation & Développement : Alexandra Zaïnal
Sur une idée originale de : Baudouin d'Aumeries
Assistance à la programmation : Marc-Olivier Méhu
Soutien technique & logistique : Manuel Goepfert

Contact : metmap@orbifly.com




SOURCES & CREDITS :

   NOAA